Time;durP1;ratioP1;P1;durP2;ratioP2;P2;SDS_P1;SDS_P2;PMS_P1;PMS_P2;Temp;Humidity;BMP_temperature;BMP_pressure;BME280_temperature;BME280_humidity;BME280_pressure;Samples;Min_cycle;Max_cycle;Signal;HPM_P1;HPM_P2
2024/01/24 00:00:44;;;;;;;12.60;1.85;;;;;;;36.17;21.79;98822.66;7392442;19;20029;-88
2024/01/24 00:03:10;;;;;;;5.10;0.70;;;;;;;36.04;21.70;98817.91;7390811;19;20014;-89
2024/01/24 00:05:36;;;;;;;2.50;0.85;;;;;;;36.03;21.92;98839.63;7391627;19;20019;-88
2024/01/24 00:08:03;;;;;;;5.68;1.17;;;;;;;36.18;21.62;98835.72;7393584;19;20019;-88
2024/01/24 00:10:29;;;;;;;15.30;0.98;;;;;;;35.88;21.87;98837.69;7389726;19;20011;-90
2024/01/24 00:12:56;;;;;;;14.50;1.48;;;;;;;36.13;21.71;98828.31;7390033;19;20018;-89
2024/01/24 00:15:22;;;;;;;0.80;0.63;;;;;;;36.07;21.99;98843.38;7390934;19;20023;-87
2024/01/24 00:17:48;;;;;;;11.80;0.95;;;;;;;36.26;21.98;98835.94;7395180;19;20036;-88
2024/01/24 00:20:14;;;;;;;1.85;0.63;;;;;;;36.12;21.98;98838.44;7392568;19;20018;-88
2024/01/24 00:22:40;;;;;;;9.32;1.27;;;;;;;36.10;22.12;98827.53;7391620;19;20009;-88
2024/01/24 00:25:07;;;;;;;3.70;1.08;;;;;;;36.22;22.08;98818.44;7389708;19;20018;-87
2024/01/24 00:27:33;;;;;;;7.15;1.48;;;;;;;35.84;22.40;98809.34;7392336;19;20369;-87
2024/01/24 00:29:59;;;;;;;9.50;0.63;;;;;;;35.65;22.40;98857.28;7392067;19;20023;-88
2024/01/24 00:32:25;;;;;;;0.32;0.25;;;;;;;35.52;22.91;98846.00;7391364;19;20018;-89
2024/01/24 00:34:51;;;;;;;7.95;0.85;;;;;;;35.44;23.04;98884.09;7388796;19;20026;-87
2024/01/24 00:37:17;;;;;;;7.47;1.45;;;;;;;35.46;23.12;98880.53;7391894;19;20043;-88
2024/01/24 00:39:46;;;;;;;2.20;0.40;;;;;;;35.50;23.41;98875.63;7391160;19;20729;-88
2024/01/24 00:42:12;;;;;;;0.10;0.00;;;;;;;35.19;23.79;98887.63;7390215;19;20515;-88
2024/01/24 00:44:39;;;;;;;8.00;1.17;;;;;;;35.37;23.16;98884.59;7388615;19;20018;-87
2024/01/24 00:47:06;;;;;;;5.85;1.05;;;;;;;35.67;23.04;98874.00;7390529;19;20015;-88
2024/01/24 00:49:32;;;;;;;3.40;1.30;;;;;;;35.38;22.43;98880.25;7387628;19;20043;-88
2024/01/24 00:51:58;;;;;;;7.70;1.10;;;;;;;35.39;22.89;98864.38;7388559;19;20029;-87
2024/01/24 00:54:24;;;;;;;7.30;0.63;;;;;;;36.00;21.75;98873.59;7387260;19;20026;-88
2024/01/24 00:56:50;;;;;;;5.38;0.85;;;;;;;36.48;21.46;98885.91;7392050;19;20010;-92
2024/01/24 00:59:16;;;;;;;5.40;0.88;;;;;;;36.17;21.55;98903.84;7389351;19;20088;-84
2024/01/24 01:01:42;;;;;;;2.20;0.77;;;;;;;36.00;21.27;98867.06;7389198;19;20049;-90
2024/01/24 01:04:08;;;;;;;9.75;0.75;;;;;;;35.94;20.91;98876.28;7390421;19;20020;-89
2024/01/24 01:06:34;;;;;;;10.18;0.85;;;;;;;36.29;21.29;98892.59;7395767;19;20014;-90
2024/01/24 01:09:00;;;;;;;6.43;0.40;;;;;;;35.18;21.52;98897.69;7395853;19;20010;-89
2024/01/24 01:11:26;;;;;;;4.78;0.45;;;;;;;34.02;22.38;98894.91;7395508;19;20018;-89
2024/01/24 01:13:53;;;;;;;1.42;0.45;;;;;;;34.09;22.30;98925.50;7395934;19;20019;-89
2024/01/24 01:16:19;;;;;;;8.50;0.50;;;;;;;32.86;23.01;98879.94;7398620;19;20082;-88
2024/01/24 01:18:45;;;;;;;17.67;1.85;;;;;;;33.73;22.34;98917.50;7397072;19;20018;-89
2024/01/24 01:21:11;;;;;;;5.97;0.68;;;;;;;33.38;22.38;98926.88;7398557;19;20015;-88
2024/01/24 01:23:37;;;;;;;5.68;1.25;;;;;;;33.84;22.33;98931.72;7396319;19;20014;-89
2024/01/24 01:26:03;;;;;;;0.65;0.65;;;;;;;34.75;21.61;98961.25;7395277;19;20108;-89
2024/01/24 01:28:29;;;;;;;2.65;1.00;;;;;;;34.75;21.42;98972.84;7398550;19;20022;-89
2024/01/24 01:30:55;;;;;;;3.30;0.95;;;;;;;34.65;21.76;98972.47;7394518;19;20085;-88
2024/01/24 01:33:21;;;;;;;1.83;1.00;;;;;;;34.24;21.71;98950.66;7394555;19;20014;-88
2024/01/24 01:35:47;;;;;;;7.72;1.10;;;;;;;34.17;21.37;98974.97;7397690;19;20025;-89
2024/01/24 01:38:14;;;;;;;2.70;0.57;;;;;;;34.71;20.77;98972.69;7400056;19;20379;-89
2024/01/24 01:40:40;;;;;;;3.38;0.80;;;;;;;33.42;22.16;98990.56;7397838;19;20491;-89
2024/01/24 01:43:13;;;;;;;2.33;0.65;;;;;;;33.36;22.23;98993.19;7394782;19;20014;-89
2024/01/24 01:45:40;;;;;;;3.10;0.73;;;;;;;33.11;22.50;99016.66;7395908;19;20018;-89
2024/01/24 01:48:08;;;;;;;5.78;1.10;;;;;;;32.62;23.11;99016.53;7399049;19;20014;-89
2024/01/24 01:50:35;;;;;;;10.32;1.02;;;;;;;32.33;23.26;99023.13;7396319;19;20472;-88
2024/01/24 01:53:03;;;;;;;7.82;0.73;;;;;;;31.81;24.00;99023.41;7396187;19;20019;-89
2024/01/24 01:55:31;;;;;;;3.50;0.85;;;;;;;32.77;23.52;99005.00;7395183;19;20018;-89
2024/01/24 01:57:58;;;;;;;2.17;0.57;;;;;;;31.83;24.29;99037.91;7399212;19;20017;-89
2024/01/24 02:00:25;;;;;;;3.03;0.80;;;;;;;31.57;24.53;99028.72;7395074;19;20049;-88
2024/01/24 02:02:51;;;;;;;4.68;0.57;;;;;;;31.77;24.37;99035.47;7395264;19;20015;-89
2024/01/24 02:05:18;;;;;;;4.88;2.10;;;;;;;31.89;24.18;99027.44;7391943;19;20352;-88
2024/01/24 02:07:44;;;;;;;8.48;0.90;;;;;;;33.75;22.69;99028.09;7395988;19;20476;-89
2024/01/24 02:10:14;;;;;;;2.55;0.57;;;;;;;33.91;22.26;99028.78;7399363;19;20011;-89
2024/01/24 02:12:41;;;;;;;1.23;0.25;;;;;;;34.62;21.63;99046.13;7396555;19;20010;-89
2024/01/24 02:15:10;;;;;;;3.13;1.45;;;;;;;34.69;21.86;99036.25;7394350;19;20018;-89
2024/01/24 02:17:36;;;;;;;1.15;0.55;;;;;;;34.40;21.97;99065.44;7397407;19;20031;-89
2024/01/24 02:20:05;;;;;;;11.85;0.57;;;;;;;33.55;22.43;99038.81;7395294;19;20006;-89
2024/01/24 02:22:31;;;;;;;1.15;0.32;;;;;;;34.26;22.16;99049.03;7400433;19;20022;-90
2024/01/24 02:24:57;;;;;;;0.22;0.22;;;;;;;34.48;21.50;99060.72;7393712;19;20022;-89
2024/01/24 02:27:24;;;;;;;1.48;0.57;;;;;;;33.76;22.17;99066.41;7394436;19;20473;-89
2024/01/24 02:29:50;;;;;;;5.00;0.85;;;;;;;32.81;23.02;99067.94;7393534;19;20015;-90
2024/01/24 02:32:16;;;;;;;0.30;0.30;;;;;;;32.44;22.66;99065.44;7392738;19;20044;-90
2024/01/24 02:34:42;;;;;;;5.60;0.52;;;;;;;32.38;23.04;99056.50;7395511;19;20025;-89
2024/01/24 02:37:08;;;;;;;0.50;0.50;;;;;;;32.51;22.98;99093.19;7394814;19;20026;-90
2024/01/24 02:39:34;;;;;;;2.88;0.47;;;;;;;31.67;23.80;99100.44;7397891;19;20023;-90
2024/01/24 02:42:00;;;;;;;3.40;0.45;;;;;;;31.58;23.99;99110.06;7395152;19;20011;-89
2024/01/24 02:44:26;;;;;;;3.60;0.75;;;;;;;31.26;24.32;99112.69;7397331;19;20034;-89
2024/01/24 02:46:52;;;;;;;6.63;0.95;;;;;;;31.07;24.72;99150.50;7391990;19;20018;-90
2024/01/24 02:49:18;;;;;;;0.57;0.32;;;;;;;30.87;24.58;99146.53;7392085;19;20050;-89
2024/01/24 02:51:44;;;;;;;3.45;0.35;;;;;;;30.46;25.07;99148.47;7393787;19;20031;-89
2024/01/24 02:54:10;;;;;;;5.78;1.23;;;;;;;30.77;24.57;99145.94;7392375;19;20015;-90
2024/01/24 02:56:37;;;;;;;0.50;0.32;;;;;;;31.04;24.86;99171.16;7398554;19;20027;-89
2024/01/24 02:59:03;;;;;;;8.63;1.17;;;;;;;31.70;24.03;99165.41;7394734;19;20022;-90
2024/01/24 03:01:29;;;;;;;3.97;0.45;;;;;;;31.84;24.07;99164.00;7394900;19;20492;-89
2024/01/24 03:03:55;;;;;;;8.88;0.80;;;;;;;31.59;24.08;99183.53;7393922;19;20026;-89
2024/01/24 03:06:21;;;;;;;0.32;0.30;;;;;;;32.71;23.41;99186.44;7389446;19;20010;-90
2024/01/24 03:08:55;;;;;;;2.67;0.50;;;;;;;31.67;24.34;99192.59;7396683;19;20098;-89
2024/01/24 03:11:21;;;;;;;4.53;0.32;;;;;;;31.78;24.17;99195.38;7391326;19;20469;-89
2024/01/24 03:13:47;;;;;;;1.10;0.28;;;;;;;31.39;24.23;99186.78;7393011;19;20018;-88
2024/01/24 03:16:13;;;;;;;4.57;0.57;;;;;;;31.48;23.83;99205.28;7394725;19;20015;-89
2024/01/24 03:18:39;;;;;;;7.38;0.20;;;;;;;31.42;24.37;99208.56;7392449;19;20007;-88
2024/01/24 03:21:07;;;;;;;18.63;2.13;;;;;;;31.34;24.71;99202.34;7397270;19;20381;-88
2024/01/24 03:23:33;;;;;;;1.35;0.95;;;;;;;30.92;24.59;99216.53;7391821;19;20014;-88
2024/01/24 03:25:59;;;;;;;0.32;0.32;;;;;;;30.94;24.91;99231.78;7390693;19;20027;-90
2024/01/24 03:28:25;;;;;;;5.80;1.00;;;;;;;31.27;24.26;99220.66;7388515;19;20018;-89
2024/01/24 03:30:52;;;;;;;8.18;0.90;;;;;;;31.20;24.49;99238.25;7391610;19;20104;-89
2024/01/24 03:33:18;;;;;;;9.50;1.10;;;;;;;31.07;24.59;99242.56;7394534;19;20019;-90
2024/01/24 03:35:44;;;;;;;3.78;0.93;;;;;;;30.64;24.95;99253.00;7392795;19;20022;-89
2024/01/24 03:38:10;;;;;;;0.75;0.30;;;;;;;30.65;25.31;99260.25;7391143;19;20095;-89
2024/01/24 03:40:36;;;;;;;1.33;0.40;;;;;;;30.57;25.16;99266.28;7393295;19;20046;-89
2024/01/24 03:43:02;;;;;;;1.05;0.88;;;;;;;30.67;25.16;99251.72;7389849;19;20379;-89
2024/01/24 03:45:28;;;;;;;2.25;0.68;;;;;;;31.29;24.79;99261.09;7395590;19;20021;-89
2024/01/24 03:47:55;;;;;;;7.10;1.95;;;;;;;31.39;24.28;99250.13;7396991;19;20028;-88
2024/01/24 03:50:21;;;;;;;2.47;0.80;;;;;;;31.39;24.42;99290.41;7392566;19;20031;-89
2024/01/24 03:52:47;;;;;;;3.22;0.52;;;;;;;31.19;24.34;99289.28;7394243;19;20011;-90
2024/01/24 03:55:13;;;;;;;14.27;0.82;;;;;;;30.97;24.73;99318.94;7390392;19;20109;-89
2024/01/24 03:57:40;;;;;;;1.45;0.65;;;;;;;30.83;24.68;99309.44;7396407;19;20070;-89
2024/01/24 04:00:06;;;;;;;1.88;0.93;;;;;;;31.33;24.60;99333.25;7393490;19;20022;-89
2024/01/24 04:02:39;;;;;;;2.33;0.57;;;;;;;31.71;24.51;99328.13;7392299;19;20022;-89
2024/01/24 04:05:06;;;;;;;1.58;0.40;;;;;;;30.94;24.96;99323.81;7391244;19;20026;-88
2024/01/24 04:07:32;;;;;;;5.85;1.08;;;;;;;31.09;25.22;99342.63;7390349;19;20472;-90
2024/01/24 04:09:59;;;;;;;0.40;0.40;;;;;;;31.45;24.70;99344.00;7390881;19;20010;-89
2024/01/24 04:12:25;;;;;;;2.88;1.40;;;;;;;30.99;25.08;99345.66;7391921;19;20579;-90
2024/01/24 04:14:51;;;;;;;3.63;1.00;;;;;;;30.64;25.24;99345.00;7391658;19;20028;-89
2024/01/24 04:17:17;;;;;;;0.77;0.35;;;;;;;30.64;25.26;99354.38;7395493;19;20047;-89
2024/01/24 04:19:43;;;;;;;3.80;1.25;;;;;;;30.83;24.93;99350.44;7392407;19;20019;-89
2024/01/24 04:22:09;;;;;;;0.63;0.63;;;;;;;31.18;25.23;99379.13;7392739;19;20021;-89
2024/01/24 04:24:35;;;;;;;3.13;0.38;;;;;;;30.10;25.78;99384.78;7390934;19;20052;-89
2024/01/24 04:27:01;;;;;;;14.27;1.45;;;;;;;30.05;25.69;99354.28;7389588;19;20019;-90
2024/01/24 04:29:27;;;;;;;16.38;1.55;;;;;;;30.11;25.92;99392.75;7390510;19;20018;-88
2024/01/24 04:31:54;;;;;;;8.32;1.83;;;;;;;29.82;25.73;99390.22;7393849;19;20026;-89
2024/01/24 04:34:20;;;;;;;0.55;0.30;;;;;;;30.49;25.47;99405.91;7389068;19;20026;-89
2024/01/24 04:36:46;;;;;;;2.03;1.08;;;;;;;30.52;25.46;99402.50;7391798;19;20389;-89
2024/01/24 04:39:12;;;;;;;0.70;0.47;;;;;;;30.45;25.64;99417.16;7391055;19;20025;-90
2024/01/24 04:41:38;;;;;;;2.50;1.17;;;;;;;30.06;26.19;99413.25;7393391;19;20131;-89
2024/01/24 04:44:04;;;;;;;1.60;1.10;;;;;;;30.05;26.12;99428.97;7391066;19;20011;-89
2024/01/24 04:46:30;;;;;;;0.95;0.13;;;;;;;29.65;26.47;99421.38;7391070;19;20007;-89
2024/01/24 04:48:56;;;;;;;6.13;1.25;;;;;;;29.91;26.25;99443.94;7393335;19;20374;-88
2024/01/24 04:51:23;;;;;;;8.95;0.73;;;;;;;30.65;25.83;99450.00;7390366;19;20093;-90
2024/01/24 04:53:50;;;;;;;3.20;0.45;;;;;;;30.79;25.34;99482.50;7388092;19;20022;-89
2024/01/24 04:56:16;;;;;;;7.50;2.03;;;;;;;30.91;25.51;99488.25;7391804;19;20427;-89
2024/01/24 04:58:42;;;;;;;1.52;1.23;;;;;;;31.07;25.26;99515.88;7390189;19;20025;-89
2024/01/24 05:01:11;;;;;;;2.25;0.82;;;;;;;30.87;25.38;99503.13;7391319;19;20015;-89
2024/01/24 05:03:37;;;;;;;0.90;0.75;;;;;;;30.87;25.54;99511.00;7389489;19;20018;-89
2024/01/24 05:06:04;;;;;;;0.60;0.55;;;;;;;30.99;25.46;99514.66;7386929;19;20596;-89
2024/01/24 05:08:30;;;;;;;0.57;0.30;;;;;;;31.16;25.30;99517.88;7386842;19;20007;-90
2024/01/24 05:10:56;;;;;;;1.92;0.50;;;;;;;31.24;25.25;99526.97;7388456;19;20027;-89
2024/01/24 05:13:22;;;;;;;2.20;0.40;;;;;;;30.58;25.71;99526.50;7390252;19;20022;-89
2024/01/24 05:15:49;;;;;;;10.45;0.38;;;;;;;30.24;26.15;99532.16;7389759;19;20022;-89
2024/01/24 05:18:15;;;;;;;3.97;1.42;;;;;;;30.28;25.80;99544.66;7393153;19;20022;-89
2024/01/24 05:20:42;;;;;;;0.68;0.68;;;;;;;30.56;26.09;99540.75;7389467;19;20021;-89
2024/01/24 05:23:08;;;;;;;5.93;0.98;;;;;;;30.06;26.21;99560.47;7392377;19;20023;-88
2024/01/24 05:25:35;;;;;;;2.45;0.82;;;;;;;30.11;26.41;99564.34;7387866;19;20018;-89
2024/01/24 05:28:01;;;;;;;0.75;0.57;;;;;;;30.05;26.00;99593.44;7389043;19;20028;-90
2024/01/24 05:30:27;;;;;;;12.35;1.27;;;;;;;29.87;26.33;99570.03;7389560;19;20086;-91
2024/01/24 05:32:57;;;;;;;0.15;0.15;;;;;;;29.99;25.95;99565.06;7389401;19;20018;-90
2024/01/24 05:35:23;;;;;;;11.40;1.15;;;;;;;29.84;26.34;99582.72;7391224;19;20789;-89
2024/01/24 05:37:49;;;;;;;4.78;1.38;;;;;;;29.72;26.10;99593.38;7390089;19;20025;-88
2024/01/24 05:40:17;;;;;;;1.75;0.57;;;;;;;29.45;26.96;99603.72;7390512;19;20011;-93
2024/01/24 05:42:43;;;;;;;5.82;0.52;;;;;;;29.54;26.57;99602.91;7388824;19;20412;-90
2024/01/24 05:45:10;;;;;;;1.13;0.55;;;;;;;29.58;27.03;99572.38;7388361;19;20015;-88
2024/01/24 05:47:37;;;;;;;9.43;1.58;;;;;;;29.88;26.39;99614.63;7390557;19;20019;-88
2024/01/24 05:50:03;;;;;;;3.50;0.68;;;;;;;30.84;25.31;99616.53;7386787;19;20015;-89
2024/01/24 05:52:30;;;;;;;3.83;1.08;;;;;;;30.18;26.05;99609.34;7395362;19;20038;-88
2024/01/24 05:54:56;;;;;;;4.32;0.82;;;;;;;30.54;25.90;99629.72;7393886;19;20026;-89
2024/01/24 05:57:22;;;;;;;1.52;1.20;;;;;;;30.13;25.93;99630.56;7396081;19;20035;-86
2024/01/24 05:59:48;;;;;;;14.00;1.13;;;;;;;29.69;26.20;99651.31;7396587;19;20043;-88
2024/01/24 06:02:14;;;;;;;7.65;0.75;;;;;;;29.91;26.25;99653.56;7398032;19;20014;-88
2024/01/24 06:04:40;;;;;;;2.58;0.93;;;;;;;29.42;26.38;99665.19;7393083;19;20018;-89
2024/01/24 06:07:06;;;;;;;0.20;0.20;;;;;;;29.36;26.58;99682.75;7392548;19;20042;-88
2024/01/24 06:09:33;;;;;;;0.63;0.35;;;;;;;29.33;26.50;99701.19;7394320;19;20010;-89
2024/01/24 06:11:59;;;;;;;0.20;0.20;;;;;;;29.54;26.81;99709.84;7391900;19;20027;-88
2024/01/24 06:14:25;;;;;;;1.23;0.22;;;;;;;29.61;26.47;99699.53;7392347;19;20562;-88
2024/01/24 06:16:51;;;;;;;0.30;0.30;;;;;;;29.63;26.35;99711.91;7397564;19;20026;-88
2024/01/24 06:19:18;;;;;;;6.25;0.40;;;;;;;29.60;26.72;99709.53;7398725;19;20018;-88
2024/01/24 06:21:44;;;;;;;10.93;2.63;;;;;;;29.29;26.74;99706.66;7401395;19;20050;-89
2024/01/24 06:24:10;;;;;;;0.25;0.25;;;;;;;29.01;26.66;99716.06;7398488;19;20433;-89
2024/01/24 06:26:37;;;;;;;1.00;0.55;;;;;;;29.03;26.91;99707.63;7397725;19;20021;-88
2024/01/24 06:29:04;;;;;;;8.65;1.13;;;;;;;28.40;27.73;99711.63;7399264;19;20355;-89
2024/01/24 06:31:30;;;;;;;4.80;1.27;;;;;;;28.22;27.51;99735.31;7397000;19;20022;-88
2024/01/24 06:33:56;;;;;;;20.35;2.60;;;;;;;27.79;28.27;99752.06;7398278;19;20046;-89
2024/01/24 06:36:22;;;;;;;6.10;1.40;;;;;;;27.02;28.71;99767.38;7401794;19;20351;-89
2024/01/24 06:38:48;;;;;;;11.30;1.23;;;;;;;27.21;28.67;99781.00;7400113;19;20346;-88
2024/01/24 06:41:14;;;;;;;4.40;0.88;;;;;;;28.40;27.67;99791.84;7400861;19;20027;-89
2024/01/24 06:43:42;;;;;;;9.93;1.77;;;;;;;27.49;28.34;99786.16;7397153;19;20025;-89
2024/01/24 06:46:08;;;;;;;8.00;1.67;;;;;;;28.16;27.94;99761.38;7390694;19;20018;-89
2024/01/24 06:48:35;;;;;;;2.08;1.25;;;;;;;28.70;26.96;99749.63;7393747;19;20465;-90
2024/01/24 06:51:01;;;;;;;15.45;1.48;;;;;;;27.67;27.84;99773.28;7389198;19;20006;-89
2024/01/24 06:53:27;;;;;;;7.88;0.45;;;;;;;28.18;27.46;99786.53;7391997;19;20344;-89
2024/01/24 06:55:56;;;;;;;7.28;1.08;;;;;;;27.22;28.37;99796.84;7397419;19;20022;-90
2024/01/24 06:58:22;;;;;;;1.83;0.70;;;;;;;27.03;28.36;99815.38;7394758;19;20089;-89
2024/01/24 07:00:48;;;;;;;2.08;0.50;;;;;;;25.85;29.54;99819.63;7394470;19;20015;-90
2024/01/24 07:03:15;;;;;;;1.00;0.65;;;;;;;25.23;30.50;99817.78;7394055;19;20358;-90
2024/01/24 07:05:43;;;;;;;8.85;1.42;;;;;;;24.66;30.88;99829.00;7393381;19;20033;-90
2024/01/24 07:08:09;;;;;;;2.35;0.52;;;;;;;24.92;30.88;99833.50;7392105;19;20357;-89
2024/01/24 07:10:35;;;;;;;10.43;0.77;;;;;;;25.70;30.24;99851.91;7392537;19;20018;-90
2024/01/24 07:13:01;;;;;;;7.05;0.75;;;;;;;26.08;29.77;99860.16;7393490;19;20006;-89
2024/01/24 07:15:28;;;;;;;0.77;0.70;;;;;;;25.83;30.05;99865.88;7392574;19;20142;-89
2024/01/24 07:17:55;;;;;;;0.45;0.45;;;;;;;26.03;29.76;99881.16;7397655;19;20342;-90
2024/01/24 07:20:22;;;;;;;8.57;1.05;;;;;;;25.88;30.13;99904.09;7397469;19;20035;-89
2024/01/24 07:22:48;;;;;;;2.45;0.82;;;;;;;25.58;30.61;99931.47;7395953;19;20074;-89
2024/01/24 07:25:14;;;;;;;2.38;1.50;;;;;;;25.54;30.93;99942.50;7393194;19;20029;-89
2024/01/24 07:27:40;;;;;;;2.40;0.80;;;;;;;25.87;30.34;99933.97;7394985;19;20371;-89
2024/01/24 07:30:07;;;;;;;0.77;0.22;;;;;;;26.09;30.47;99915.94;7395582;19;20357;-90
2024/01/24 07:32:35;;;;;;;4.57;0.50;;;;;;;26.29;30.40;99929.84;7396527;19;20291;-89
2024/01/24 07:35:01;;;;;;;0.50;0.50;;;;;;;27.93;29.15;99949.22;7394631;19;20055;-89
2024/01/24 07:37:27;;;;;;;11.13;1.23;;;;;;;27.88;29.02;99948.13;7394723;19;20025;-89
2024/01/24 07:39:54;;;;;;;12.15;1.38;;;;;;;27.26;29.19;99983.06;7394543;19;20015;-89
2024/01/24 07:42:20;;;;;;;3.20;0.77;;;;;;;27.36;29.12;99995.34;7396403;19;20018;-89
2024/01/24 07:44:47;;;;;;;1.27;0.95;;;;;;;27.50;29.50;99999.41;7392641;19;20553;-89
2024/01/24 07:47:14;;;;;;;8.57;0.40;;;;;;;27.93;28.80;99995.78;7392654;19;20110;-89
2024/01/24 07:49:40;;;;;;;3.20;1.10;;;;;;;27.52;29.06;99979.53;7388829;19;20051;-88
2024/01/24 07:52:07;;;;;;;15.85;0.70;;;;;;;26.48;29.68;99966.47;7391104;19;20098;-90
2024/01/24 07:54:33;;;;;;;2.90;0.77;;;;;;;26.06;30.25;99971.31;7389497;19;20389;-89
2024/01/24 07:57:01;;;;;;;2.72;1.20;;;;;;;26.22;30.09;99984.94;7392524;19;20014;-89
2024/01/24 07:59:27;;;;;;;1.40;0.75;;;;;;;25.95;30.43;99994.59;7393600;19;20030;-89
2024/01/24 08:01:53;;;;;;;1.38;0.68;;;;;;;25.68;30.98;100016.44;7392173;19;20393;-89
2024/01/24 08:04:19;;;;;;;1.75;0.20;;;;;;;25.98;30.59;100028.47;7393653;19;20035;-89
2024/01/24 08:06:47;;;;;;;3.67;0.68;;;;;;;26.33;30.08;100057.22;7391685;19;20383;-89
2024/01/24 08:09:14;;;;;;;7.30;2.28;;;;;;;27.68;28.81;100055.25;7391486;19;20039;-90
2024/01/24 08:11:40;;;;;;;9.63;1.45;;;;;;;27.54;28.81;100056.94;7390867;19;20007;-90
2024/01/24 08:14:08;;;;;;;18.52;1.15;;;;;;;27.31;29.24;100065.00;7393612;19;20045;-90
2024/01/24 08:16:34;;;;;;;3.60;0.38;;;;;;;25.80;30.55;100051.75;7392852;19;20021;-90
2024/01/24 08:19:00;;;;;;;5.60;1.08;;;;;;;25.60;30.64;100038.53;7392708;19;20002;-89
2024/01/24 08:21:30;;;;;;;2.58;1.02;;;;;;;25.62;31.13;100045.16;7394479;19;20489;-90
2024/01/24 08:23:56;;;;;;;1.65;1.08;;;;;;;26.82;30.08;100086.59;7392781;19;20489;-89
2024/01/24 08:26:23;;;;;;;3.92;1.05;;;;;;;25.52;30.91;100090.66;7391886;19;20410;-90
2024/01/24 08:28:50;;;;;;;4.07;1.05;;;;;;;26.02;30.40;100080.19;7391258;19;20053;-89
2024/01/24 08:31:16;;;;;;;0.50;0.50;;;;;;;25.09;31.19;100085.19;7391503;19;20493;-89
2024/01/24 08:33:42;;;;;;;2.10;0.32;;;;;;;24.74;31.87;100080.41;7392648;19;20054;-90
2024/01/24 08:36:09;;;;;;;6.75;0.57;;;;;;;26.83;29.85;100081.66;7394608;19;20014;-89
2024/01/24 08:38:35;;;;;;;10.23;1.73;;;;;;;27.52;29.27;100100.47;7394316;19;20018;-89
2024/01/24 08:41:02;;;;;;;13.35;1.17;;;;;;;27.70;29.02;100122.00;7393535;19;20018;-89
2024/01/24 08:43:28;;;;;;;1.73;0.80;;;;;;;27.49;29.01;100115.19;7393583;19;20022;-90
2024/01/24 08:45:54;;;;;;;10.07;1.50;;;;;;;28.06;28.99;100124.31;7390113;19;20044;-89
2024/01/24 08:48:21;;;;;;;9.75;0.47;;;;;;;28.32;28.60;100117.84;7392783;19;20022;-89
2024/01/24 08:50:47;;;;;;;2.95;0.65;;;;;;;28.63;28.24;100132.50;7390701;19;20010;-90
2024/01/24 08:53:13;;;;;;;0.75;0.25;;;;;;;28.62;27.89;100158.91;7391620;19;20014;-89
2024/01/24 08:55:40;;;;;;;6.68;0.90;;;;;;;28.63;28.28;100164.03;7392786;19;20098;-90
2024/01/24 08:58:06;;;;;;;1.45;0.80;;;;;;;28.75;28.38;100158.53;7393069;19;20006;-89
2024/01/24 09:00:32;;;;;;;1.08;0.55;;;;;;;29.66;27.48;100180.75;7392348;19;20003;-90
2024/01/24 09:02:59;;;;;;;4.97;1.13;;;;;;;29.22;27.36;100175.22;7393834;19;20056;-89
2024/01/24 09:05:25;;;;;;;0.57;0.47;;;;;;;29.91;27.47;100175.53;7389229;19;20807;-90
2024/01/24 09:07:51;;;;;;;6.53;3.03;;;;;;;32.47;25.19;100176.38;7390089;19;20468;-90
2024/01/24 09:10:17;;;;;;;2.15;0.32;;;;;;;32.95;24.60;100193.19;7388818;19;20357;-90
2024/01/24 09:12:44;;;;;;;0.43;0.43;;;;;;;32.78;24.67;100200.84;7388959;19;20388;-90
2024/01/24 09:15:10;;;;;;;0.95;0.20;;;;;;;32.77;24.83;100205.09;7389650;19;20018;-89
2024/01/24 09:17:36;;;;;;;1.38;0.32;;;;;;;33.01;24.54;100197.25;7394041;19;20387;-90
2024/01/24 09:20:03;;;;;;;4.22;0.57;;;;;;;31.91;25.19;100197.19;7390165;19;20030;-90
2024/01/24 09:22:29;;;;;;;5.70;0.82;;;;;;;28.49;27.64;100212.38;7390779;19;20548;-90
2024/01/24 09:24:55;;;;;;;0.80;0.22;;;;;;;29.36;27.37;100210.75;7388372;19;20018;-90
2024/01/24 09:27:21;;;;;;;6.13;1.55;;;;;;;27.60;28.23;100209.13;7394750;19;20031;-89
2024/01/24 09:29:47;;;;;;;7.78;1.00;;;;;;;28.09;28.54;100214.00;7395738;19;20346;-89
2024/01/24 09:32:13;;;;;;;20.92;0.55;;;;;;;28.89;27.75;100214.16;7394071;19;20010;-90
2024/01/24 09:34:40;;;;;;;5.15;0.90;;;;;;;26.68;29.78;100224.63;7393807;19;20006;-89
2024/01/24 09:37:07;;;;;;;1.65;0.50;;;;;;;26.90;29.50;100241.66;7396401;19;20052;-89
2024/01/24 09:39:33;;;;;;;5.93;0.85;;;;;;;23.98;32.71;100259.47;7396953;19;20018;-90
2024/01/24 09:42:01;;;;;;;0.15;0.15;;;;;;;28.41;28.68;100257.53;7397529;19;20523;-90
2024/01/24 09:44:30;;;;;;;0.80;0.30;;;;;;;29.72;27.71;100271.00;7396821;19;20025;-90
2024/01/24 09:46:56;;;;;;;0.10;0.00;;;;;;;31.38;26.54;100272.66;7396354;19;20070;-90
2024/01/24 09:49:23;;;;;;;0.57;0.57;;;;;;;31.20;26.33;100280.75;7394212;19;20018;-88
2024/01/24 09:51:51;;;;;;;3.30;0.88;;;;;;;29.90;26.74;100288.91;7394060;19;20361;-89
2024/01/24 09:54:17;;;;;;;12.10;0.90;;;;;;;29.07;27.87;100293.03;7394106;19;20015;-89
2024/01/24 09:56:44;;;;;;;0.73;0.40;;;;;;;28.61;28.38;100312.19;7396104;19;20044;-89
2024/01/24 09:59:11;;;;;;;0.35;0.35;;;;;;;28.42;28.30;100316.38;7400899;19;20372;-90
2024/01/24 10:01:38;;;;;;;7.88;1.08;;;;;;;31.57;25.85;100317.91;7397483;19;20025;-89
2024/01/24 10:04:06;;;;;;;18.20;2.28;;;;;;;28.43;28.18;100320.75;7397424;19;20030;-89
2024/01/24 10:06:36;;;;;;;12.13;1.08;;;;;;;28.94;28.12;100330.69;7393632;19;20035;-90
2024/01/24 10:09:02;;;;;;;5.05;0.47;;;;;;;26.21;30.98;100334.63;7400389;19;20018;-90
2024/01/24 10:11:28;;;;;;;0.25;0.13;;;;;;;26.95;30.22;100340.75;7394016;19;20374;-88
2024/01/24 10:13:58;;;;;;;0.20;0.20;;;;;;;27.51;29.67;100345.03;7391621;19;20480;-91
2024/01/24 10:16:26;;;;;;;0.73;0.65;;;;;;;27.45;29.68;100358.81;7395047;19;20006;-88
2024/01/24 10:18:55;;;;;;;0.40;0.40;;;;;;;26.99;29.99;100369.69;7397897;19;20019;-88
2024/01/24 10:21:23;;;;;;;5.57;1.27;;;;;;;27.48;29.97;100374.78;7396647;19;20032;-91
2024/01/24 10:23:49;;;;;;;1.60;0.57;;;;;;;27.67;29.83;100368.56;7396262;19;20043;-89
2024/01/24 10:26:16;;;;;;;6.75;2.20;;;;;;;26.62;30.98;100376.25;7392917;19;20472;-89
2024/01/24 10:28:43;;;;;;;19.83;2.83;;;;;;;25.16;31.98;100389.44;7397982;19;20029;-90
2024/01/24 10:31:10;;;;;;;1.58;0.52;;;;;;;26.14;31.30;100389.66;7393774;19;20029;-89
2024/01/24 10:33:36;;;;;;;1.45;0.77;;;;;;;27.07;30.53;100378.25;7392420;19;20136;-94
2024/01/24 10:36:03;;;;;;;14.40;0.77;;;;;;;27.17;30.30;100389.81;7395994;19;20018;-89
2024/01/24 10:38:31;;;;;;;9.57;1.48;;;;;;;27.25;30.13;100391.28;7398429;19;20025;-89
2024/01/24 10:41:02;;;;;;;10.90;1.27;;;;;;;27.63;29.79;100385.41;7393813;19;20115;-89
2024/01/24 10:43:29;;;;;;;4.30;1.02;;;;;;;27.74;29.65;100390.66;7394893;19;20095;-90
2024/01/24 10:45:57;;;;;;;7.28;1.17;;;;;;;29.29;28.28;100386.66;7390762;19;20021;-89
2024/01/24 10:48:23;;;;;;;1.17;0.55;;;;;;;28.60;29.23;100390.91;7396923;19;20039;-89
2024/01/24 10:50:51;;;;;;;6.28;0.75;;;;;;;28.33;29.10;100382.16;7396785;19;20011;-88
2024/01/24 10:53:19;;;;;;;8.68;1.70;;;;;;;28.76;28.96;100400.88;7392023;19;20059;-89
2024/01/24 10:55:48;;;;;;;5.00;1.20;;;;;;;29.05;28.47;100393.25;7396090;19;20019;-89
2024/01/24 10:58:15;;;;;;;7.82;1.17;;;;;;;29.09;28.66;100399.31;7395356;19;20019;-89
2024/01/24 11:00:41;;;;;;;0.98;0.75;;;;;;;28.58;29.14;100402.22;7396008;19;20015;-90
2024/01/24 11:03:08;;;;;;;6.15;0.45;;;;;;;28.00;29.38;100412.25;7395632;19;20025;-89
2024/01/24 11:05:47;;;;;;;2.88;0.98;;;;;;;28.03;29.58;100417.56;7393408;19;20022;-88
2024/01/24 11:08:16;;;;;;;12.20;1.92;;;;;;;28.02;28.96;100410.34;7391400;19;20015;-89
2024/01/24 11:10:44;;;;;;;4.22;1.50;;;;;;;28.46;28.81;100419.88;7392445;19;20023;-89
2024/01/24 11:13:11;;;;;;;13.25;1.10;;;;;;;28.52;28.77;100428.25;7394452;19;20022;-89
2024/01/24 11:15:38;;;;;;;0.45;0.30;;;;;;;28.38;29.01;100430.66;7393910;19;20030;-88
2024/01/24 11:18:24;;;;;;;3.05;0.55;;;;;;;27.21;30.09;100447.38;7399338;19;20496;-89
2024/01/24 11:20:53;;;;;;;5.47;0.95;;;;;;;27.31;29.88;100445.44;7393646;19;20074;-89
2024/01/24 11:23:35;;;;;;;4.78;1.02;;;;;;;26.83;30.38;100447.50;7393433;19;20018;-89
2024/01/24 11:26:02;;;;;;;2.85;0.50;;;;;;;26.47;30.88;100450.56;7397060;19;20025;-89